Time;durP1;ratioP1;P1;durP2;ratioP2;P2;SDS_P1;SDS_P2;PMS_P1;PMS_P2;Temp;Humidity;BMP_temperature;BMP_pressure;BME280_temperature;BME280_humidity;BME280_pressure;Samples;Min_cycle;Max_cycle;Signal;HPM_P1;HPM_P2
2021/12/27 00:01:17;;;;;;;49.45;39.17;;;;;;;;;;6131960;23;20437;-83
2021/12/27 00:03:44;;;;;;;49.70;37.67;;;;;;;;;;6117841;23;20367;-84
2021/12/27 00:06:11;;;;;;;47.17;37.97;;;;;;;;;;6118607;23;20363;-83
2021/12/27 00:08:40;;;;;;;47.08;37.25;;;;;;;;;;6121041;23;20394;-84
2021/12/27 00:11:09;;;;;;;47.73;36.70;;;;;;;;;;6118674;23;20430;-85
2021/12/27 00:13:36;;;;;;;49.30;35.67;;;;;;;;;;6117931;23;20439;-85
2021/12/27 00:16:06;;;;;;;46.95;34.67;;;;;;;;;;6118058;23;20670;-84
2021/12/27 00:18:33;;;;;;;43.75;34.10;;;;;;;;;;6116308;23;20426;-85
2021/12/27 00:21:00;;;;;;;44.28;34.47;;;;;;;;;;6117574;23;20907;-85
2021/12/27 00:23:27;;;;;;;43.92;34.63;;;;;;;;;;6117229;23;20367;-84
2021/12/27 00:25:53;;;;;;;41.20;32.30;;;;;;;;;;6117621;23;20828;-85
2021/12/27 00:28:22;;;;;;;41.50;33.00;;;;;;;;;;6118775;23;20390;-84
2021/12/27 00:30:49;;;;;;;41.50;32.85;;;;;;;;;;6117340;23;20379;-84
2021/12/27 00:33:16;;;;;;;41.70;31.88;;;;;;;;;;6117854;23;20371;-85
2021/12/27 00:35:43;;;;;;;40.95;32.67;;;;;;;;;;6116937;23;20367;-84
2021/12/27 00:38:10;;;;;;;41.03;31.77;;;;;;;;;;6117540;23;20371;-84
2021/12/27 00:40:37;;;;;;;38.80;32.40;;;;;;;;;;6118573;23;20377;-85
2021/12/27 00:43:04;;;;;;;39.42;31.52;;;;;;;;;;6117406;23;20363;-85
2021/12/27 00:45:32;;;;;;;40.08;31.85;;;;;;;;;;6117709;23;20371;-85
2021/12/27 00:47:59;;;;;;;39.33;31.60;;;;;;;;;;6117348;23;20391;-85
2021/12/27 00:50:26;;;;;;;41.03;32.28;;;;;;;;;;6117153;23;20367;-85
2021/12/27 00:52:53;;;;;;;37.95;30.63;;;;;;;;;;6117933;23;20371;-84
2021/12/27 00:55:20;;;;;;;38.08;31.08;;;;;;;;;;6118228;23;20690;-85
2021/12/27 00:57:49;;;;;;;38.37;30.73;;;;;;;;;;6117921;23;20375;-85
2021/12/27 01:00:18;;;;;;;37.78;29.80;;;;;;;;;;6125209;23;20379;-84
2021/12/27 01:02:47;;;;;;;37.75;29.60;;;;;;;;;;6140583;23;20371;-85
2021/12/27 01:05:15;;;;;;;35.20;29.15;;;;;;;;;;6117791;23;20781;-84
2021/12/27 01:07:43;;;;;;;36.55;29.88;;;;;;;;;;6117360;23;20405;-84
2021/12/27 01:10:29;;;;;;;35.45;28.35;;;;;;;;;;6117612;23;20736;-84
2021/12/27 01:13:06;;;;;;;35.17;27.95;;;;;;;;;;6117908;23;20910;-84
2021/12/27 01:15:46;;;;;;;35.40;27.60;;;;;;;;;;6117211;23;20418;-84
2021/12/27 01:18:15;;;;;;;32.20;26.40;;;;;;;;;;6117120;23;20426;-84
2021/12/27 01:20:42;;;;;;;32.28;26.10;;;;;;;;;;6117043;23;20794;-84
2021/12/27 01:23:09;;;;;;;31.02;25.92;;;;;;;;;;6117382;23;20363;-84
2021/12/27 01:25:37;;;;;;;32.30;24.90;;;;;;;;;;6117455;23;20479;-84
2021/12/27 01:28:04;;;;;;;31.17;25.23;;;;;;;;;;6118010;23;20465;-84
2021/12/27 01:30:36;;;;;;;34.58;25.58;;;;;;;;;;6116616;23;20367;-84
2021/12/27 01:33:04;;;;;;;31.17;24.80;;;;;;;;;;6117226;23;20460;-84
2021/12/27 01:35:34;;;;;;;31.08;24.65;;;;;;;;;;6117091;23;20375;-85
2021/12/27 01:38:02;;;;;;;30.98;23.33;;;;;;;;;;6117778;23;20367;-84
2021/12/27 01:40:29;;;;;;;31.02;24.27;;;;;;;;;;6116269;23;20930;-84
2021/12/27 01:43:06;;;;;;;30.37;23.13;;;;;;;;;;6117420;23;20414;-84
2021/12/27 01:45:34;;;;;;;30.65;23.67;;;;;;;;;;6116836;23;20367;-84
2021/12/27 01:48:01;;;;;;;29.77;23.75;;;;;;;;;;6116769;23;20844;-84
2021/12/27 01:50:28;;;;;;;29.75;23.67;;;;;;;;;;6117111;23;20372;-84
2021/12/27 01:52:56;;;;;;;28.77;23.38;;;;;;;;;;6117321;23;20374;-84
2021/12/27 01:55:23;;;;;;;30.10;23.30;;;;;;;;;;6117140;23;20431;-84
2021/12/27 01:57:50;;;;;;;27.27;21.67;;;;;;;;;;6117313;23;20458;-84
2021/12/27 02:00:18;;;;;;;28.70;21.85;;;;;;;;;;6117460;23;20669;-85
2021/12/27 02:02:45;;;;;;;27.33;22.48;;;;;;;;;;6117171;23;20446;-84
2021/12/27 02:05:12;;;;;;;27.05;22.13;;;;;;;;;;6117138;23;20649;-84
2021/12/27 02:07:39;;;;;;;27.33;21.48;;;;;;;;;;6116899;23;20375;-85
2021/12/27 02:10:09;;;;;;;28.48;21.98;;;;;;;;;;6117283;23;20437;-84
2021/12/27 02:12:36;;;;;;;28.83;23.27;;;;;;;;;;6116874;23;20378;-84
2021/12/27 02:15:07;;;;;;;28.27;22.38;;;;;;;;;;6116582;23;20422;-84
2021/12/27 02:17:34;;;;;;;29.38;22.58;;;;;;;;;;6116596;23;20382;-84
2021/12/27 02:20:06;;;;;;;27.90;22.20;;;;;;;;;;6116436;23;20371;-84
2021/12/27 02:22:36;;;;;;;29.40;22.55;;;;;;;;;;6116978;23;20374;-84
2021/12/27 02:25:06;;;;;;;28.00;22.77;;;;;;;;;;6117013;23;20426;-84
2021/12/27 02:27:33;;;;;;;26.52;21.80;;;;;;;;;;6116701;23;20402;-84
2021/12/27 02:30:00;;;;;;;29.75;22.83;;;;;;;;;;6116462;23;20868;-84
2021/12/27 02:32:27;;;;;;;26.73;21.85;;;;;;;;;;6117226;23;20414;-84
2021/12/27 02:34:54;;;;;;;31.30;23.47;;;;;;;;;;6117114;23;20507;-84
2021/12/27 02:37:22;;;;;;;30.45;23.98;;;;;;;;;;6118550;23;20374;-84
2021/12/27 02:39:49;;;;;;;30.40;23.98;;;;;;;;;;6118824;23;20382;-84
2021/12/27 02:42:18;;;;;;;31.55;25.10;;;;;;;;;;6119372;23;20378;-84
2021/12/27 02:44:45;;;;;;;32.28;24.35;;;;;;;;;;6117842;23;20417;-84
2021/12/27 02:47:14;;;;;;;32.10;24.63;;;;;;;;;;6118537;23;20412;-84
2021/12/27 02:49:41;;;;;;;33.42;25.23;;;;;;;;;;6118989;23;20449;-84
2021/12/27 02:52:09;;;;;;;32.17;24.67;;;;;;;;;;6119306;23;20457;-84
2021/12/27 02:54:44;;;;;;;31.10;25.05;;;;;;;;;;6118749;23;20402;-84
2021/12/27 02:57:11;;;;;;;30.63;23.80;;;;;;;;;;6119034;23;20890;-84
2021/12/27 02:59:38;;;;;;;30.58;24.42;;;;;;;;;;6118722;23;20371;-84
2021/12/27 03:02:05;;;;;;;32.78;24.23;;;;;;;;;;6119415;23;20379;-84
2021/12/27 03:04:36;;;;;;;33.22;25.13;;;;;;;;;;6119050;23;20371;-84
2021/12/27 03:07:04;;;;;;;30.27;23.77;;;;;;;;;;6120113;23;20455;-84
2021/12/27 03:09:31;;;;;;;30.58;24.38;;;;;;;;;;6118772;23;20450;-84
2021/12/27 03:11:59;;;;;;;30.53;24.37;;;;;;;;;;6120261;23;20454;-84
2021/12/27 03:14:26;;;;;;;31.67;24.63;;;;;;;;;;6119311;23;20426;-84
2021/12/27 03:16:53;;;;;;;31.90;24.48;;;;;;;;;;6120484;23;20454;-84
2021/12/27 03:19:20;;;;;;;32.35;24.40;;;;;;;;;;6120033;23;20425;-84
2021/12/27 03:21:46;;;;;;;30.63;23.80;;;;;;;;;;6119169;23;20367;-84
2021/12/27 03:24:13;;;;;;;29.20;23.05;;;;;;;;;;6119604;23;20373;-84
2021/12/27 03:26:40;;;;;;;30.33;23.92;;;;;;;;;;6119131;23;20477;-84
2021/12/27 03:29:09;;;;;;;31.13;24.13;;;;;;;;;;6118959;23;20391;-84
2021/12/27 03:31:37;;;;;;;29.87;24.03;;;;;;;;;;6118687;23;20370;-84
2021/12/27 03:34:04;;;;;;;29.40;23.40;;;;;;;;;;6119169;23;20595;-84
2021/12/27 03:36:37;;;;;;;29.42;23.48;;;;;;;;;;6119330;23;20381;-84
2021/12/27 03:39:07;;;;;;;29.35;23.30;;;;;;;;;;6119197;23;20363;-84
2021/12/27 03:41:35;;;;;;;30.55;23.75;;;;;;;;;;6118897;23;20371;-84
2021/12/27 03:44:02;;;;;;;31.13;24.23;;;;;;;;;;6119138;23;20434;-84
2021/12/27 03:46:31;;;;;;;29.60;22.60;;;;;;;;;;6118335;23;20367;-84
2021/12/27 03:48:58;;;;;;;32.45;24.33;;;;;;;;;;6118066;23;20776;-84
2021/12/27 03:51:25;;;;;;;31.58;23.90;;;;;;;;;;6118290;23;20669;-84
2021/12/27 03:53:52;;;;;;;30.38;24.05;;;;;;;;;;6119056;23;20434;-84
2021/12/27 03:56:23;;;;;;;30.15;24.20;;;;;;;;;;6118906;23;20371;-84
2021/12/27 03:58:55;;;;;;;31.30;24.20;;;;;;;;;;6125404;23;20375;-83
2021/12/27 04:01:23;;;;;;;31.80;24.67;;;;;;;;;;6126625;23;20371;-84
2021/12/27 04:03:54;;;;;;;29.75;23.55;;;;;;;;;;6119299;23;20417;-85
2021/12/27 04:06:23;;;;;;;28.50;23.40;;;;;;;;;;6121784;23;20363;-83
2021/12/27 04:08:50;;;;;;;28.17;22.83;;;;;;;;;;6121178;23;20442;-84
2021/12/27 04:11:17;;;;;;;32.78;23.85;;;;;;;;;;6121732;23;20367;-85
2021/12/27 04:13:44;;;;;;;30.77;24.77;;;;;;;;;;6119547;23;20362;-84
2021/12/27 04:16:11;;;;;;;27.63;22.40;;;;;;;;;;6118406;23;20930;-84
2021/12/27 04:18:38;;;;;;;29.33;22.75;;;;;;;;;;6118204;23;20828;-84
2021/12/27 04:21:07;;;;;;;29.43;23.33;;;;;;;;;;6118384;23;20430;-84
2021/12/27 04:23:33;;;;;;;26.38;22.77;;;;;;;;;;6118021;23;20430;-84
2021/12/27 04:26:00;;;;;;;26.90;21.88;;;;;;;;;;6118526;23;20429;-84
2021/12/27 04:28:27;;;;;;;28.20;23.17;;;;;;;;;;6117515;23;20374;-84
2021/12/27 04:30:54;;;;;;;31.15;24.05;;;;;;;;;;6118719;23;20371;-84
2021/12/27 04:33:21;;;;;;;29.40;23.55;;;;;;;;;;6118506;23;20371;-84
2021/12/27 04:35:48;;;;;;;27.75;22.90;;;;;;;;;;6118244;23;20736;-84
2021/12/27 04:38:16;;;;;;;31.17;23.38;;;;;;;;;;6118253;23;20910;-84
2021/12/27 04:40:46;;;;;;;30.88;22.77;;;;;;;;;;6118208;23;20371;-84
2021/12/27 04:43:17;;;;;;;28.83;22.55;;;;;;;;;;6118364;23;20371;-84
2021/12/27 04:45:45;;;;;;;27.52;21.70;;;;;;;;;;6118258;23;20378;-84
2021/12/27 04:48:12;;;;;;;27.60;22.25;;;;;;;;;;6117701;23;20379;-84
2021/12/27 04:50:39;;;;;;;28.98;22.70;;;;;;;;;;6118241;23;20772;-84
2021/12/27 04:53:07;;;;;;;29.30;23.17;;;;;;;;;;6118952;23;20366;-84
2021/12/27 04:55:36;;;;;;;30.67;23.63;;;;;;;;;;6117917;23;20879;-84
2021/12/27 04:58:04;;;;;;;30.83;24.13;;;;;;;;;;6118330;23;20789;-84
2021/12/27 05:00:31;;;;;;;31.15;23.95;;;;;;;;;;6117411;23;20732;-84
2021/12/27 05:02:59;;;;;;;30.92;23.58;;;;;;;;;;6117295;23;20907;-84
2021/12/27 05:05:26;;;;;;;27.63;23.08;;;;;;;;;;6116087;23;20399;-85
2021/12/27 05:07:57;;;;;;;31.92;23.52;;;;;;;;;;6116573;23;20376;-84
2021/12/27 05:10:26;;;;;;;28.92;22.33;;;;;;;;;;6117098;23;20386;-84
2021/12/27 05:12:54;;;;;;;30.60;23.05;;;;;;;;;;6117495;23;20376;-84
2021/12/27 05:15:22;;;;;;;27.63;21.75;;;;;;;;;;6117564;23;20419;-84
2021/12/27 05:17:48;;;;;;;26.67;21.90;;;;;;;;;;6117750;23;20465;-84
2021/12/27 05:20:16;;;;;;;30.02;21.63;;;;;;;;;;6117640;23;20367;-84
2021/12/27 05:22:43;;;;;;;26.27;21.45;;;;;;;;;;6116845;23;20393;-85
2021/12/27 05:25:14;;;;;;;28.40;21.40;;;;;;;;;;6117257;23;20828;-84
2021/12/27 05:27:41;;;;;;;27.08;21.75;;;;;;;;;;6116944;23;20689;-84
2021/12/27 05:30:10;;;;;;;26.15;21.08;;;;;;;;;;6117667;23;20449;-84
2021/12/27 05:32:39;;;;;;;26.10;21.27;;;;;;;;;;6117249;23;20364;-84
2021/12/27 05:35:08;;;;;;;27.05;22.77;;;;;;;;;;6117431;23;20366;-84
2021/12/27 05:37:34;;;;;;;27.15;21.70;;;;;;;;;;6116571;23;20737;-84
2021/12/27 05:40:05;;;;;;;26.70;22.17;;;;;;;;;;6117302;23;20729;-84
2021/12/27 05:42:32;;;;;;;29.27;22.52;;;;;;;;;;6117379;23;20393;-83
2021/12/27 05:44:59;;;;;;;27.70;22.20;;;;;;;;;;6117437;23;20617;-84
2021/12/27 05:47:27;;;;;;;28.38;22.40;;;;;;;;;;6117077;23;20378;-84
2021/12/27 05:49:54;;;;;;;28.17;21.80;;;;;;;;;;6116643;23;20976;-84
2021/12/27 05:52:21;;;;;;;28.75;22.42;;;;;;;;;;6116858;23;20429;-84
2021/12/27 05:54:47;;;;;;;28.63;22.38;;;;;;;;;;6117579;23;20434;-84
2021/12/27 05:57:14;;;;;;;28.48;21.55;;;;;;;;;;6116943;23;20434;-84
2021/12/27 05:59:41;;;;;;;27.67;22.58;;;;;;;;;;6117074;23;20367;-84
2021/12/27 06:02:08;;;;;;;28.17;22.52;;;;;;;;;;6117253;23;20728;-84
2021/12/27 06:04:37;;;;;;;27.70;21.42;;;;;;;;;;6116827;23;20371;-84
2021/12/27 06:07:04;;;;;;;27.45;21.40;;;;;;;;;;6117009;23;20386;-84
2021/12/27 06:09:31;;;;;;;26.67;21.35;;;;;;;;;;6116651;23;20395;-85
2021/12/27 06:11:58;;;;;;;27.20;21.43;;;;;;;;;;6118346;23;20363;-84
2021/12/27 06:14:24;;;;;;;25.13;21.35;;;;;;;;;;6119414;23;20421;-84
2021/12/27 06:16:51;;;;;;;27.05;22.67;;;;;;;;;;6119141;23;20429;-85
2021/12/27 06:19:18;;;;;;;28.48;22.65;;;;;;;;;;6119193;23;20363;-84
2021/12/27 06:21:46;;;;;;;27.70;21.88;;;;;;;;;;6118452;23;20863;-85
2021/12/27 06:24:13;;;;;;;28.13;22.30;;;;;;;;;;6118692;23;20426;-85
2021/12/27 06:26:40;;;;;;;26.73;21.98;;;;;;;;;;6119057;23;20370;-84
2021/12/27 06:29:07;;;;;;;26.98;22.17;;;;;;;;;;6121681;23;20382;-85
2021/12/27 06:31:34;;;;;;;26.92;21.63;;;;;;;;;;6138954;23;20370;-83
2021/12/27 06:34:01;;;;;;;26.75;22.20;;;;;;;;;;6146085;23;20359;-84
2021/12/27 06:36:28;;;;;;;27.88;21.63;;;;;;;;;;6142046;23;20363;-84
2021/12/27 06:38:56;;;;;;;27.10;21.98;;;;;;;;;;6131541;23;20412;-85
2021/12/27 06:41:24;;;;;;;27.27;22.45;;;;;;;;;;6143318;23;20970;-84
2021/12/27 06:43:51;;;;;;;27.45;22.13;;;;;;;;;;6143674;23;20374;-85
2021/12/27 06:46:18;;;;;;;26.77;21.50;;;;;;;;;;6144194;23;20902;-86
2021/12/27 06:48:46;;;;;;;23.88;20.80;;;;;;;;;;6132998;23;20441;-84
2021/12/27 06:51:12;;;;;;;27.00;21.45;;;;;;;;;;6124877;23;20449;-85
2021/12/27 06:53:39;;;;;;;26.65;21.50;;;;;;;;;;6116306;23;20370;-84
2021/12/27 06:56:07;;;;;;;27.52;21.90;;;;;;;;;;6132116;23;20363;-84
2021/12/27 06:58:35;;;;;;;26.20;21.88;;;;;;;;;;6135444;23;20367;-84
2021/12/27 07:01:02;;;;;;;27.92;22.50;;;;;;;;;;6117175;23;20359;-84
2021/12/27 07:03:29;;;;;;;25.53;21.83;;;;;;;;;;6116168;23;20767;-84
2021/12/27 07:05:56;;;;;;;30.10;22.65;;;;;;;;;;6115085;23;20437;-84
2021/12/27 07:08:23;;;;;;;29.85;23.42;;;;;;;;;;6112835;23;20476;-83
2021/12/27 07:10:51;;;;;;;30.35;23.35;;;;;;;;;;6113693;23;20474;-84
2021/12/27 07:13:19;;;;;;;28.00;22.58;;;;;;;;;;6117900;23;20398;-84
2021/12/27 07:15:46;;;;;;;29.25;23.17;;;;;;;;;;6116577;23;20375;-84
2021/12/27 07:18:16;;;;;;;28.23;22.73;;;;;;;;;;6117031;23;20383;-84
2021/12/27 07:20:43;;;;;;;30.25;23.60;;;;;;;;;;6117467;23;20380;-84
2021/12/27 07:23:10;;;;;;;29.05;22.90;;;;;;;;;;6118987;23;20367;-84
2021/12/27 07:25:36;;;;;;;31.85;23.77;;;;;;;;;;6117094;23;20366;-84
2021/12/27 07:28:04;;;;;;;29.75;23.17;;;;;;;;;;6117314;23;20844;-84
2021/12/27 07:30:32;;;;;;;29.85;23.75;;;;;;;;;;6116677;23;20864;-84
2021/12/27 07:32:59;;;;;;;31.02;24.63;;;;;;;;;;6117189;23;20903;-84
2021/12/27 07:35:27;;;;;;;30.77;24.70;;;;;;;;;;6117954;23;20363;-83
2021/12/27 07:37:54;;;;;;;30.38;24.38;;;;;;;;;;6117948;23;20670;-83
2021/12/27 07:40:21;;;;;;;31.05;25.08;;;;;;;;;;6117776;23;20375;-83
2021/12/27 07:42:48;;;;;;;33.45;24.95;;;;;;;;;;6116799;23;20856;-84
2021/12/27 07:45:15;;;;;;;32.50;24.70;;;;;;;;;;6117220;23;20371;-83
2021/12/27 07:47:43;;;;;;;34.10;25.80;;;;;;;;;;6037878;23;1868258;-83
2021/12/27 07:50:10;;;;;;;32.95;25.80;;;;;;;;;;6117852;23;20391;-85
2021/12/27 07:52:37;;;;;;;31.52;25.85;;;;;;;;;;6118785;23;20795;-84
2021/12/27 07:55:05;;;;;;;32.67;26.17;;;;;;;;;;6118859;23;20363;-83
2021/12/27 07:57:32;;;;;;;35.25;26.33;;;;;;;;;;6118427;23;20375;-85
2021/12/27 07:59:59;;;;;;;33.30;25.93;;;;;;;;;;6118708;23;20375;-84
2021/12/27 08:02:26;;;;;;;33.55;26.25;;;;;;;;;;6118159;23;20422;-85
2021/12/27 08:04:55;;;;;;;32.38;25.35;;;;;;;;;;6119293;23;20370;-84
2021/12/27 08:07:22;;;;;;;33.28;25.92;;;;;;;;;;6119071;23;20377;-84
2021/12/27 08:09:49;;;;;;;33.35;26.23;;;;;;;;;;6117826;23;20454;-85
2021/12/27 08:12:16;;;;;;;30.73;24.60;;;;;;;;;;6118616;23;20382;-84
2021/12/27 08:14:43;;;;;;;31.30;24.90;;;;;;;;;;6118005;23;20371;-84
2021/12/27 08:17:09;;;;;;;33.30;24.40;;;;;;;;;;6118148;23;20732;-84
2021/12/27 08:19:36;;;;;;;31.80;25.00;;;;;;;;;;6117465;23;20426;-84
2021/12/27 08:22:05;;;;;;;35.03;25.05;;;;;;;;;;6118317;23;20371;-85
2021/12/27 08:24:31;;;;;;;33.63;25.30;;;;;;;;;;6118015;23;20422;-84
2021/12/27 08:27:02;;;;;;;34.45;25.05;;;;;;;;;;6118239;23;20426;-84
2021/12/27 08:29:30;;;;;;;31.50;23.50;;;;;;;;;;6118368;23;20395;-85
2021/12/27 08:31:58;;;;;;;30.73;24.10;;;;;;;;;;6118006;23;20716;-84
2021/12/27 08:34:25;;;;;;;30.95;24.30;;;;;;;;;;6118214;23;20728;-85
2021/12/27 08:36:52;;;;;;;29.83;23.38;;;;;;;;;;6118649;23;20379;-84
2021/12/27 08:39:20;;;;;;;28.75;23.52;;;;;;;;;;6120166;23;20661;-85
2021/12/27 08:41:47;;;;;;;30.67;23.33;;;;;;;;;;6117604;23;20375;-84
2021/12/27 08:44:14;;;;;;;30.17;23.73;;;;;;;;;;6118869;23;20419;-85
2021/12/27 08:46:44;;;;;;;29.00;23.55;;;;;;;;;;6117824;23;20368;-85
2021/12/27 08:49:13;;;;;;;33.17;26.47;;;;;;;;;;6117897;23;20381;-85
2021/12/27 08:51:41;;;;;;;32.53;26.30;;;;;;;;;;6118431;23;20710;-84
2021/12/27 08:54:08;;;;;;;35.90;28.75;;;;;;;;;;6118016;23;20366;-85
2021/12/27 08:56:38;;;;;;;42.33;32.35;;;;;;;;;;6118074;23;20375;-84
2021/12/27 08:59:05;;;;;;;39.33;30.52;;;;;;;;;;6118518;23;20429;-85
2021/12/27 09:01:32;;;;;;;39.25;29.45;;;;;;;;;;6118289;23;20363;-84
2021/12/27 09:03:59;;;;;;;36.65;28.95;;;;;;;;;;6118393;23;20374;-85
2021/12/27 09:06:25;;;;;;;39.88;29.35;;;;;;;;;;6118829;23;20418;-84
2021/12/27 09:08:52;;;;;;;39.17;29.23;;;;;;;;;;6118759;23;20371;-84
2021/12/27 09:11:20;;;;;;;36.28;28.45;;;;;;;;;;6118371;23;20395;-84
2021/12/27 09:13:49;;;;;;;38.38;29.63;;;;;;;;;;6117677;23;20751;-85
2021/12/27 09:16:15;;;;;;;33.53;26.88;;;;;;;;;;6117615;23;20375;-84
2021/12/27 09:18:42;;;;;;;34.72;26.23;;;;;;;;;;6117407;23;20690;-85
2021/12/27 09:21:09;;;;;;;33.72;25.92;;;;;;;;;;6118141;23;20370;-85
2021/12/27 09:23:36;;;;;;;29.45;25.30;;;;;;;;;;6118211;23;20383;-85
2021/12/27 09:26:03;;;;;;;34.22;24.48;;;;;;;;;;6117583;23;20423;-85
2021/12/27 09:28:30;;;;;;;30.97;22.97;;;;;;;;;;6115943;23;20370;-86
2021/12/27 09:30:59;;;;;;;28.95;23.10;;;;;;;;;;6117466;23;20390;-86
2021/12/27 09:33:26;;;;;;;28.63;22.67;;;;;;;;;;6118102;23;20371;-86
2021/12/27 09:35:54;;;;;;;28.73;23.88;;;;;;;;;;6117750;23;20432;-85
2021/12/27 09:38:21;;;;;;;27.70;23.35;;;;;;;;;;6117779;23;20837;-86
2021/12/27 09:40:47;;;;;;;29.15;21.33;;;;;;;;;;6117537;23;20772;-86
2021/12/27 09:43:14;;;;;;;28.08;21.25;;;;;;;;;;6118849;23;20454;-95
2021/12/27 09:45:42;;;;;;;23.10;19.00;;;;;;;;;;6120901;23;20403;-92
2021/12/27 09:48:13;;;;;;;23.55;18.88;;;;;;;;;;6121514;23;20379;-92
2021/12/27 09:50:42;;;;;;;23.63;20.13;;;;;;;;;;6123197;23;20487;-93
2021/12/27 09:53:10;;;;;;;22.80;18.65;;;;;;;;;;6123899;23;20378;-92
2021/12/27 09:55:37;;;;;;;22.00;17.65;;;;;;;;;;6121508;23;20855;-92
2021/12/27 09:58:05;;;;;;;21.92;17.20;;;;;;;;;;6121217;23;20984;-93
2021/12/27 10:00:33;;;;;;;22.38;18.30;;;;;;;;;;6100621;23;20379;-93
2021/12/27 10:03:01;;;;;;;24.05;18.85;;;;;;;;;;6101514;23;20395;-92
2021/12/27 10:05:32;;;;;;;23.90;19.20;;;;;;;;;;6121348;23;20844;-93
2021/12/27 10:08:01;;;;;;;25.65;20.40;;;;;;;;;;6121477;23;20359;-93
2021/12/27 10:10:28;;;;;;;27.80;21.17;;;;;;;;;;6121696;23;20881;-94
2021/12/27 10:12:55;;;;;;;24.92;21.63;;;;;;;;;;6121599;23;20449;-93
2021/12/27 10:15:32;;;;;;;26.42;21.60;;;;;;;;;;6121884;23;20414;-93
2021/12/27 10:18:08;;;;;;;23.08;18.90;;;;;;;;;;6121792;23;20387;-93
2021/12/27 10:20:37;;;;;;;21.02;18.15;;;;;;;;;;6121273;23;20395;-93
2021/12/27 10:23:04;;;;;;;22.27;18.02;;;;;;;;;;6121688;23;20359;-94
2021/12/27 10:25:31;;;;;;;27.08;19.05;;;;;;;;;;6095487;23;20386;-93
2021/12/27 10:28:01;;;;;;;23.02;18.42;;;;;;;;;;6120777;23;20370;-93
2021/12/27 10:30:30;;;;;;;24.73;19.90;;;;;;;;;;6120309;23;20453;-93
2021/12/27 10:33:10;;;;;;;25.00;19.67;;;;;;;;;;6120070;23;20372;-93
2021/12/27 10:35:41;;;;;;;24.67;18.90;;;;;;;;;;6120627;23;20367;-92
2021/12/27 10:38:16;;;;;;;22.27;18.63;;;;;;;;;;6119588;23;20374;-92
2021/12/27 10:40:49;;;;;;;23.10;18.42;;;;;;;;;;6120578;23;20529;-93
2021/12/27 10:43:18;;;;;;;23.25;18.10;;;;;;;;;;6120327;23;20363;-93
2021/12/27 10:45:47;;;;;;;22.33;17.90;;;;;;;;;;6120559;23;20726;-91
2021/12/27 10:48:22;;;;;;;22.88;19.02;;;;;;;;;;6120282;23;20432;-92
2021/12/27 10:50:51;;;;;;;22.98;18.83;;;;;;;;;;6121221;23;20445;-95
2021/12/27 10:53:17;;;;;;;22.58;16.92;;;;;;;;;;6121037;23;20386;-93
2021/12/27 10:55:48;;;;;;;24.43;18.27;;;;;;;;;;6119975;23;20407;-93
2021/12/27 10:58:20;;;;;;;25.08;19.80;;;;;;;;;;6121132;23;20416;-94
2021/12/27 11:00:50;;;;;;;23.85;18.85;;;;;;;;;;6122551;23;20371;-93
2021/12/27 11:03:28;;;;;;;20.65;17.05;;;;;;;;;;6122856;23;20434;-94
2021/12/27 11:05:57;;;;;;;19.27;16.17;;;;;;;;;;6121998;23;20843;-93
2021/12/27 11:08:24;;;;;;;18.27;15.75;;;;;;;;;;6122075;23;20370;-93
2021/12/27 11:10:51;;;;;;;19.77;15.70;;;;;;;;;;6121207;23;20387;-93
2021/12/27 11:13:18;;;;;;;17.45;14.45;;;;;;;;;;6122403;23;20375;-93
2021/12/27 11:15:45;;;;;;;16.85;14.60;;;;;;;;;;6121063;23;20587;-92
2021/12/27 11:18:15;;;;;;;17.75;14.30;;;;;;;;;;6122234;23;20379;-93
2021/12/27 11:20:45;;;;;;;18.15;14.75;;;;;;;;;;6121636;23;20780;-94
2021/12/27 11:23:17;;;;;;;15.20;12.82;;;;;;;;;;6122059;23;20429;-94
2021/12/27 11:25:46;;;;;;;14.13;12.38;;;;;;;;;;6124279;23;20416;-93
2021/12/27 11:28:28;;;;;;;17.08;13.43;;;;;;;;;;6122969;23;20753;-94
2021/12/27 11:30:58;;;;;;;16.20;13.15;;;;;;;;;;6097421;23;20403;-94
2021/12/27 11:33:26;;;;;;;17.92;13.82;;;;;;;;;;6123865;23;20395;-93
2021/12/27 11:36:10;;;;;;;16.48;13.50;;;;;;;;;;6123714;23;20366;-94
2021/12/27 11:38:44;;;;;;;16.52;14.00;;;;;;;;;;6124758;23;20466;-94
2021/12/27 11:41:33;;;;;;;14.90;12.88;;;;;;;;;;6123676;23;20555;-94
2021/12/27 11:44:03;;;;;;;15.68;13.10;;;;;;;;;;6122332;23;20946;-94
2021/12/27 11:46:32;;;;;;;15.48;12.30;;;;;;;;;;6097821;23;20422;-94
2021/12/27 11:49:01;;;;;;;15.48;13.15;;;;;;;;;;6097923;23;20423;-94
2021/12/27 11:51:34;;;;;;;15.73;13.07;;;;;;;;;;6123356;23;20391;-94
2021/12/27 11:54:04;;;;;;;14.63;12.73;;;;;;;;;;6122307;23;20452;-94
2021/12/27 11:56:48;;;;;;;14.55;12.52;;;;;;;;;;6122095;23;20427;-92
2021/12/27 11:59:35;;;;;;;16.13;13.43;;;;;;;;;;6098724;23;20380;-94
2021/12/27 12:02:18;;;;;;;15.00;13.00;;;;;;;;;;6121811;23;20443;-94
2021/12/27 12:04:47;;;;;;;16.40;13.52;;;;;;;;;;6121042;23;20981;-93
2021/12/27 12:07:50;;;;;;;14.38;12.88;;;;;;;;;;6119669;23;20848;-94
2021/12/27 12:10:20;;;;;;;18.13;13.90;;;;;;;;;;6136240;23;20949;-96
2021/12/27 12:13:24;;;;;;;16.08;13.68;;;;;;;;;;6115239;23;20464;-95
2021/12/27 12:16:03;;;;;;;14.70;13.13;;;;;;;;;;6142813;23;20474;-96
2021/12/27 12:18:33;;;;;;;15.85;13.90;;;;;;;;;;6137571;23;20930;-96
2021/12/27 12:21:05;;;;;;;18.00;15.33;;;;;;;;;;6143292;23;20444;-96
2021/12/27 12:23:36;;;;;;;19.00;16.07;;;;;;;;;;6115394;23;20431;-96
2021/12/27 12:26:16;;;;;;;21.52;16.10;;;;;;;;;;6142394;23;20462;-95
2021/12/27 12:28:50;;;;;;;17.65;14.85;;;;;;;;;;6094119;23;20452;-95
2021/12/27 12:31:18;;;;;;;18.38;14.95;;;;;;;;;;6115957;23;20569;-96
2021/12/27 12:33:49;;;;;;;18.42;15.27;;;;;;;;;;6112755;23;20470;-96
2021/12/27 12:37:00;;;;;;;17.85;14.85;;;;;;;;;;6143614;23;20436;-95
2021/12/27 12:39:39;;;;;;;17.90;15.13;;;;;;;;;;6139083;23;20458;-96
2021/12/27 12:42:17;;;;;;;18.85;15.18;;;;;;;;;;6140501;23;20500;-95
2021/12/27 12:45:11;;;;;;;16.02;14.32;;;;;;;;;;6139848;23;20379;-96
2021/12/27 12:47:46;;;;;;;18.98;15.52;;;;;;;;;;6139752;23;20474;-96
2021/12/27 12:50:17;;;;;;;18.17;15.35;;;;;;;;;;6138306;23;20448;-95
2021/12/27 12:52:52;;;;;;;19.13;15.82;;;;;;;;;;6137733;23;20438;-94
2021/12/27 12:55:35;;;;;;;18.98;15.20;;;;;;;;;;6132683;23;20711;-95
2021/12/27 13:01:14;;;;;;;19.00;15.88;;;;;;;;;;6130560;23;20375;-94
2021/12/27 13:03:48;;;;;;;17.53;15.13;;;;;;;;;;6131597;23;20379;-95
2021/12/27 13:06:18;;;;;;;17.53;15.63;;;;;;;;;;6136706;23;20406;-94
2021/12/27 13:08:54;;;;;;;19.08;15.25;;;;;;;;;;6134909;23;20378;-94
2021/12/27 13:11:27;;;;;;;17.80;15.65;;;;;;;;;;6133165;23;20415;-94
2021/12/27 13:14:06;;;;;;;21.10;15.98;;;;;;;;;;6132698;23;20386;-96
2021/12/27 13:16:46;;;;;;;21.90;16.60;;;;;;;;;;6140051;23;20465;-95
2021/12/27 13:19:17;;;;;;;19.45;15.27;;;;;;;;;;6144914;23;20429;-92
2021/12/27 13:21:48;;;;;;;18.27;14.47;;;;;;;;;;6115209;23;20526;-95
2021/12/27 13:24:21;;;;;;;17.50;14.68;;;;;;;;;;6138098;23;20431;-95
2021/12/27 13:26:55;;;;;;;18.10;14.85;;;;;;;;;;6137594;23;20442;-96
2021/12/27 13:29:26;;;;;;;18.20;14.40;;;;;;;;;;6112630;23;20423;-95
2021/12/27 13:31:55;;;;;;;17.55;14.02;;;;;;;;;;6136093;23;20450;-94
2021/12/27 13:34:25;;;;;;;19.00;15.35;;;;;;;;;;6130728;23;20419;-94
2021/12/27 13:36:53;;;;;;;19.13;14.90;;;;;;;;;;6134546;23;20454;-96
2021/12/27 13:39:39;;;;;;;22.55;17.90;;;;;;;;;;6133154;23;20431;-96
2021/12/27 13:42:15;;;;;;;19.25;15.82;;;;;;;;;;6105687;23;20442;-96
2021/12/27 13:44:54;;;;;;;17.50;14.57;;;;;;;;;;6130848;23;20953;-95
2021/12/27 13:47:34;;;;;;;16.27;14.15;;;;;;;;;;6101157;23;20456;-95
2021/12/27 13:50:04;;;;;;;15.27;13.68;;;;;;;;;;6104484;23;20380;-94
2021/12/27 13:52:45;;;;;;;16.25;14.00;;;;;;;;;;6119791;23;20376;-96
2021/12/27 13:55:26;;;;;;;16.27;14.25;;;;;;;;;;6119495;23;20357;-96
2021/12/27 13:57:56;;;;;;;15.40;13.48;;;;;;;;;;6120264;23;20365;-96
2021/12/27 14:00:30;;;;;;;16.20;14.00;;;;;;;;;;6120242;23;20357;-96
2021/12/27 14:03:05;;;;;;;21.02;17.00;;;;;;;;;;6121264;23;20443;-96
2021/12/27 14:05:34;;;;;;;16.20;13.80;;;;;;;;;;6121126;23;20392;-96
2021/12/27 14:08:12;;;;;;;16.02;13.18;;;;;;;;;;6118159;23;20721;-85
2021/12/27 14:10:39;;;;;;;15.47;13.63;;;;;;;;;;6111261;23;20451;-92
2021/12/27 14:13:06;;;;;;;15.35;12.82;;;;;;;;;;6093479;23;20437;-91
2021/12/27 14:15:37;;;;;;;17.17;13.05;;;;;;;;;;6094836;23;20424;-89
2021/12/27 14:18:09;;;;;;;14.80;12.60;;;;;;;;;;6095599;23;20434;-91
2021/12/27 14:20:36;;;;;;;16.25;12.55;;;;;;;;;;6093828;23;20418;-91
2021/12/27 14:23:08;;;;;;;14.80;12.27;;;;;;;;;;6093764;23;20383;-90
2021/12/27 14:25:36;;;;;;;15.35;12.43;;;;;;;;;;6093911;23;20765;-90
2021/12/27 14:28:04;;;;;;;14.75;12.32;;;;;;;;;;6092263;23;20369;-91
2021/12/27 14:30:32;;;;;;;15.02;12.82;;;;;;;;;;6094146;23;20408;-91
2021/12/27 14:33:07;;;;;;;14.50;12.77;;;;;;;;;;6094360;23;20694;-91